Time,TemperatureF,DewpointF,PressureIn,WindDirection,WindDirectionDegrees,WindSpeedMPH,WindSpeedGustMPH,Humidity,HourlyPrecipIn,Conditions,Clouds,dailyrainin,SoftwareType,DateUTC
2013-03-07 00:02:00,40.9,38.8,29.62,East,80,11.5,11.5,92,0.01,RA,,0.00,WeatherDisplay:10.37,2013-03-07 00:02:00,
2013-03-07 00:07:00,40.9,38.8,29.62,ENE,76,3.5,3.5,92,0.01,RA,,0.00,WeatherDisplay:10.37,2013-03-07 00:07:00,
2013-03-07 00:12:00,40.9,38.8,29.62,ENE,72,8.1,8.1,92,0.01,CLR,,0.00,WeatherDisplay:10.37,2013-03-07 00:12:00,
2013-03-07 00:17:00,40.8,38.7,29.62,ENE,71,11.5,11.5,92,0.01,CLR,,0.00,WeatherDisplay:10.37,2013-03-07 00:17:00,
2013-03-07 00:22:00,40.8,38.7,29.62,ENE,76,7.0,7.0,92,0.01,CLR,,0.00,WeatherDisplay:10.37,2013-03-07 00:22:00,
2013-03-07 00:27:00,40.8,38.7,29.62,East,82,8.1,8.1,92,0.01,CLR,,0.00,WeatherDisplay:10.37,2013-03-07 00:27:00,
2013-03-07 00:32:00,40.8,38.7,29.62,NE,56,7.0,7.0,92,0.01,CLR,,0.00,WeatherDisplay:10.37,2013-03-07 00:32:00,
2013-03-07 00:37:00,40.8,38.7,29.62,ENE,57,7.0,7.0,92,0.01,CLR,,0.00,WeatherDisplay:10.37,2013-03-07 00:37:00,
2013-03-07 00:42:00,40.8,38.7,29.62,East,84,10.4,10.4,92,0.00,RA,,0.01,WeatherDisplay:10.37,2013-03-07 00:42:00,
2013-03-07 00:47:00,40.8,38.7,29.62,ENE,66,9.2,9.2,92,0.01,RA,,0.01,WeatherDisplay:10.37,2013-03-07 00:47:00,
2013-03-07 00:52:00,40.7,38.8,29.62,ENE,71,3.5,3.5,93,0.01,,,0.01,WeatherDisplay:10.37,2013-03-07 00:52:00,
2013-03-07 00:57:00,40.8,38.9,29.62,East,84,10.4,10.4,93,0.01,CLR,,0.01,WeatherDisplay:10.37,2013-03-07 00:57:00,
2013-03-07 01:02:00,40.7,38.8,29.62,ENE,63,6.9,6.9,93,0.01,CLR,,0.01,WeatherDisplay:10.37,2013-03-07 01:02:00,
2013-03-07 01:07:00,40.8,38.9,29.62,NE,42,5.8,5.8,93,0.01,CLR,,0.01,WeatherDisplay:10.37,2013-03-07 01:07:00,
2013-03-07 01:12:00,40.7,38.8,29.62,ENE,64,4.6,4.6,93,0.01,CLR,,0.01,WeatherDisplay:10.37,2013-03-07 01:12:00,
2013-03-07 01:17:00,40.8,38.9,29.62,ENE,68,6.9,6.9,93,0.01,CLR,,0.01,WeatherDisplay:10.37,2013-03-07 01:17:00,
2013-03-07 01:22:00,40.7,38.8,29.62,ENE,73,4.6,4.6,93,0.01,CLR,,0.01,WeatherDisplay:10.37,2013-03-07 01:22:00,
2013-03-07 01:27:00,40.8,38.9,29.62,ENE,67,10.4,10.4,93,0.01,CLR,,0.01,WeatherDisplay:10.37,2013-03-07 01:27:00,
2013-03-07 01:32:00,40.8,38.9,29.61,NE,52,9.2,9.2,93,0.01,CLR,,0.01,WeatherDisplay:10.37,2013-03-07 01:32:00,
2013-03-07 01:37:00,40.8,38.9,29.61,East,80,11.0,11.0,93,0.01,CLR,,0.01,WeatherDisplay:10.37,2013-03-07 01:37:00,
2013-03-07 01:42:00,40.8,38.9,29.61,ENE,67,6.9,6.9,93,0.00,CLR,,0.01,WeatherDisplay:10.37,2013-03-07 01:42:00,
2013-03-07 01:47:00,40.8,38.9,29.61,ENE,58,11.5,11.5,93,0.00,CLR,,0.01,WeatherDisplay:10.37,2013-03-07 01:47:00,
2013-03-07 01:52:00,40.9,39.0,29.61,East,84,10.0,10.0,93,0.00,CLR,,0.01,WeatherDisplay:10.37,2013-03-07 01:52:00,
2013-03-07 01:57:00,40.9,39.0,29.61,ENE,78,9.2,9.2,93,0.00,CLR,,0.01,WeatherDisplay:10.37,2013-03-07 01:57:00,
2013-03-07 02:02:00,40.9,39.0,29.61,ENE,77,10.4,10.4,93,0.00,CLR,,0.01,WeatherDisplay:10.37,2013-03-07 02:02:00,
2013-03-07 02:07:00,40.9,39.0,29.61,East,90,9.0,9.0,93,0.00,CLR,,0.01,WeatherDisplay:10.37,2013-03-07 02:07:00,
2013-03-07 02:12:00,41.0,39.4,29.61,NE,53,8.1,8.1,94,0.00,CLR,,0.01,WeatherDisplay:10.37,2013-03-07 02:12:00,
2013-03-07 02:17:00,41.0,39.4,29.60,East,87,10.4,10.4,94,0.00,CLR,,0.01,WeatherDisplay:10.37,2013-03-07 02:17:00,
2013-03-07 02:22:00,41.0,39.4,29.60,ESE,105,11.5,11.5,94,0.00,CLR,,0.01,WeatherDisplay:10.37,2013-03-07 02:22:00,
2013-03-07 02:27:00,41.0,39.4,29.60,East,80,10.4,10.4,94,0.00,CLR,,0.01,WeatherDisplay:10.37,2013-03-07 02:27:00,
2013-03-07 02:32:00,41.0,39.4,29.60,East,86,12.7,12.7,94,0.00,CLR,,0.01,WeatherDisplay:10.37,2013-03-07 02:32:00,
2013-03-07 02:37:00,41.0,39.4,29.60,East,79,9.2,9.2,94,0.00,CLR,,0.01,WeatherDisplay:10.37,2013-03-07 02:37:00,
2013-03-07 02:42:00,41.0,39.4,29.60,ENE,72,7.0,7.0,94,0.00,CLR,,0.01,WeatherDisplay:10.37,2013-03-07 02:42:00,
2013-03-07 02:47:00,41.0,39.4,29.59,ENE,78,9.2,9.2,94,0.00,CLR,,0.01,WeatherDisplay:10.37,2013-03-07 02:47:00,
2013-03-07 02:52:00,41.0,39.4,29.59,ENE,72,13.8,13.8,94,0.00,CLR,,0.01,WeatherDisplay:10.37,2013-03-07 02:52:00,
2013-03-07 02:57:00,41.1,39.5,29.59,ENE,67,12.7,12.7,94,0.00,CLR,,0.01,WeatherDisplay:10.37,2013-03-07 02:57:00,
2013-03-07 03:02:00,41.1,39.5,29.59,ENE,74,10.4,10.4,94,0.00,CLR,,0.01,WeatherDisplay:10.37,2013-03-07 03:02:00,
2013-03-07 03:07:00,41.1,39.5,29.59,East,80,11.5,11.5,94,0.01,RA,,0.02,WeatherDisplay:10.37,2013-03-07 03:07:00,
2013-03-07 03:12:00,41.1,39.5,29.59,ENE,73,12.7,12.7,94,0.01,RA,,0.02,WeatherDisplay:10.37,2013-03-07 03:12:00,
2013-03-07 03:17:00,41.1,39.5,29.59,NE,49,15.0,15.0,94,0.01,CLR,,0.02,WeatherDisplay:10.37,2013-03-07 03:17:00,
2013-03-07 03:22:00,41.1,39.5,29.59,ENE,71,11.5,11.5,94,0.01,CLR,,0.02,WeatherDisplay:10.37,2013-03-07 03:22:00,
2013-03-07 03:27:00,41.1,39.5,29.59,ENE,60,12.7,12.7,94,0.01,CLR,,0.02,WeatherDisplay:10.37,2013-03-07 03:27:00,
2013-03-07 03:32:00,41.0,39.4,29.59,East,87,11.0,11.0,94,0.01,CLR,,0.02,WeatherDisplay:10.37,2013-03-07 03:32:00,
2013-03-07 03:37:00,41.1,39.5,29.59,ENE,74,11.5,11.5,94,0.01,CLR,,0.02,WeatherDisplay:10.37,2013-03-07 03:37:00,
2013-03-07 03:42:00,41.1,39.5,29.59,ESE,116,11.5,11.5,94,0.01,CLR,,0.02,WeatherDisplay:10.37,2013-03-07 03:42:00,
2013-03-07 03:47:00,41.1,39.5,29.58,ENE,59,11.5,11.5,94,0.01,CLR,,0.02,WeatherDisplay:10.37,2013-03-07 03:47:00,
2013-03-07 03:52:00,41.1,39.5,29.58,ENE,59,10.0,10.0,94,0.01,CLR,,0.02,WeatherDisplay:10.37,2013-03-07 03:52:00,
2013-03-07 03:57:00,41.1,39.5,29.58,East,80,6.9,6.9,94,0.01,CLR,,0.02,WeatherDisplay:10.37,2013-03-07 03:57:00,
2013-03-07 04:02:00,41.1,39.5,29.59,East,84,9.2,9.2,94,0.01,CLR,,0.02,WeatherDisplay:10.37,2013-03-07 04:02:00,
2013-03-07 04:07:00,41.1,39.5,29.59,East,86,9.2,9.2,94,0.00,CLR,,0.02,WeatherDisplay:10.37,2013-03-07 04:07:00,
2013-03-07 04:12:00,41.2,39.6,29.59,ENE,77,6.9,6.9,94,0.00,CLR,,0.02,WeatherDisplay:10.37,2013-03-07 04:12:00,
2013-03-07 04:17:00,41.2,39.6,29.58,ESE,105,16.1,16.1,94,0.00,CLR,,0.02,WeatherDisplay:10.37,2013-03-07 04:17:00,
2013-03-07 04:22:00,41.3,39.7,29.58,ESE,116,12.7,12.7,94,0.00,CLR,,0.02,WeatherDisplay:10.37,2013-03-07 04:22:00,
2013-03-07 04:28:00,41.3,39.7,29.58,ENE,70,10.4,10.4,94,0.00,CLR,,0.02,WeatherDisplay:10.37,2013-03-07 04:28:00,
2013-03-07 04:33:00,41.3,39.7,29.58,NE,55,12.7,12.7,94,0.00,CLR,,0.02,WeatherDisplay:10.37,2013-03-07 04:33:00,
2013-03-07 04:38:00,41.3,39.7,29.58,ENE,78,6.9,6.9,94,0.00,CLR,,0.02,WeatherDisplay:10.37,2013-03-07 04:38:00,
2013-03-07 04:43:00,41.4,39.8,29.58,East,100,11.5,11.5,94,0.00,CLR,,0.02,WeatherDisplay:10.37,2013-03-07 04:43:00,
2013-03-07 04:48:00,41.4,39.8,29.58,ENE,60,8.0,8.0,94,0.00,CLR,,0.02,WeatherDisplay:10.37,2013-03-07 04:48:00,
2013-03-07 04:53:00,41.4,39.8,29.58,ENE,76,11.5,11.5,94,0.00,CLR,,0.02,WeatherDisplay:10.37,2013-03-07 04:53:00,
2013-03-07 04:58:00,41.4,39.8,29.58,ENE,66,11.5,11.5,94,0.00,CLR,,0.02,WeatherDisplay:10.37,2013-03-07 04:58:00,
2013-03-07 05:00:00,41.4,39.8,29.58,East,82,12.7,12.7,94,0.00,CLR,,0.02,WeatherDisplay:10.37,2013-03-07 05:00:00,
2013-03-07 05:01:00,41.4,39.8,29.58,ENE,77,12.7,12.7,94,0.00,CLR,,0.02,WeatherDisplay:10.37,2013-03-07 05:01:00,
2013-03-07 05:06:00,41.4,39.8,29.58,ENE,61,11.5,11.5,94,0.00,CLR,,0.02,WeatherDisplay:10.37,2013-03-07 05:06:00,
2013-03-07 05:11:00,41.4,39.8,29.58,ENE,61,11.0,11.0,94,0.00,CLR,,0.02,WeatherDisplay:10.37,2013-03-07 05:11:00,
2013-03-07 05:16:00,41.4,39.8,29.58,East,84,6.9,6.9,94,0.00,CLR,,0.02,WeatherDisplay:10.37,2013-03-07 05:16:00,
2013-03-07 05:21:00,41.4,39.8,29.58,ENE,65,11.5,11.5,94,0.00,CLR,,0.02,WeatherDisplay:10.37,2013-03-07 05:21:00,
2013-03-07 05:26:00,41.5,39.9,29.58,East,92,11.5,11.5,94,0.00,CLR,,0.02,WeatherDisplay:10.37,2013-03-07 05:26:00,
2013-03-07 05:31:00,41.4,39.8,29.58,ENE,65,9.2,9.2,94,0.00,CLR,,0.02,WeatherDisplay:10.37,2013-03-07 05:31:00,
2013-03-07 05:36:00,41.5,39.9,29.58,East,82,11.5,11.5,94,0.00,CLR,,0.02,WeatherDisplay:10.37,2013-03-07 05:36:00,
2013-03-07 05:41:00,41.5,39.9,29.58,ENE,74,6.9,6.9,94,0.00,CLR,,0.02,WeatherDisplay:10.37,2013-03-07 05:41:00,
2013-03-07 05:46:00,41.5,39.9,29.58,ENE,69,5.8,5.8,94,0.01,RA,,0.02,WeatherDisplay:10.37,2013-03-07 05:46:00,
2013-03-07 05:51:00,41.5,40.2,29.58,ENE,71,7.0,7.0,95,0.01,RA,,0.02,WeatherDisplay:10.37,2013-03-07 05:51:00,
2013-03-07 05:56:00,41.5,40.2,29.58,ENE,74,6.9,6.9,95,0.01,,,0.02,WeatherDisplay:10.37,2013-03-07 05:56:00,
2013-03-07 06:01:00,41.5,40.2,29.57,East,81,7.0,7.0,95,0.01,CLR,,0.02,WeatherDisplay:10.37,2013-03-07 06:01:00,
2013-03-07 06:06:00,41.5,40.2,29.57,ENE,72,2.3,2.3,95,0.01,CLR,,0.02,WeatherDisplay:10.37,2013-03-07 06:06:00,
2013-03-07 06:11:00,41.5,39.9,29.57,ENE,71,4.6,4.6,94,0.01,CLR,,0.02,WeatherDisplay:10.37,2013-03-07 06:11:00,
2013-03-07 06:16:00,41.5,39.9,29.58,ESE,113,8.1,8.1,94,0.01,CLR,,0.02,WeatherDisplay:10.37,2013-03-07 06:16:00,
2013-03-07 06:21:00,41.5,39.9,29.58,ENE,64,9.2,9.2,94,0.01,CLR,,0.02,WeatherDisplay:10.37,2013-03-07 06:21:00,
2013-03-07 06:26:00,41.5,40.2,29.58,ENE,74,5.8,5.8,95,0.01,CLR,,0.02,WeatherDisplay:10.37,2013-03-07 06:26:00,
2013-03-07 06:31:00,41.5,39.9,29.57,East,92,9.2,9.2,94,0.01,CLR,,0.02,WeatherDisplay:10.37,2013-03-07 06:31:00,
2013-03-07 06:36:00,41.5,39.9,29.57,NE,47,10.0,10.0,94,0.01,CLR,,0.02,WeatherDisplay:10.37,2013-03-07 06:36:00,
2013-03-07 06:41:00,41.5,40.2,29.57,East,94,6.9,6.9,95,0.01,CLR,,0.02,WeatherDisplay:10.37,2013-03-07 06:41:00,
2013-03-07 06:46:00,41.6,40.3,29.57,NE,49,9.2,9.2,95,0.00,CLR,,0.02,WeatherDisplay:10.37,2013-03-07 06:46:00,
2013-03-07 06:51:00,41.6,40.0,29.57,ENE,76,11.5,11.5,94,0.00,CLR,,0.02,WeatherDisplay:10.37,2013-03-07 06:51:00,
2013-03-07 06:56:00,41.6,40.0,29.57,ENE,65,6.9,6.9,94,0.00,CLR,,0.02,WeatherDisplay:10.37,2013-03-07 06:56:00,
2013-03-07 07:01:00,41.6,40.0,29.57,ENE,78,5.8,5.8,94,0.00,CLR,,0.02,WeatherDisplay:10.37,2013-03-07 07:01:00,
2013-03-07 07:06:00,41.6,40.0,29.57,ENE,75,5.8,5.8,94,0.00,CLR,,0.02,WeatherDisplay:10.37,2013-03-07 07:06:00,
2013-03-07 07:11:00,41.6,40.0,29.57,ENE,65,9.2,9.2,94,0.00,CLR,,0.02,WeatherDisplay:10.37,2013-03-07 07:11:00,
2013-03-07 07:16:00,41.6,40.0,29.57,ENE,57,10.4,10.4,94,0.00,CLR,,0.02,WeatherDisplay:10.37,2013-03-07 07:16:00,
2013-03-07 07:21:00,41.6,40.0,29.57,ENE,59,6.9,6.9,94,0.00,CLR,,0.02,WeatherDisplay:10.37,2013-03-07 07:21:00,
2013-03-07 07:26:00,41.7,40.1,29.57,ENE,59,8.1,8.1,94,0.00,CLR,,0.02,WeatherDisplay:10.37,2013-03-07 07:26:00,
2013-03-07 07:31:00,41.7,40.4,29.56,ENE,63,6.0,6.0,95,0.00,CLR,,0.02,WeatherDisplay:10.37,2013-03-07 07:31:00,
2013-03-07 07:36:00,41.7,40.1,29.56,East,87,10.0,10.0,94,0.00,CLR,,0.02,WeatherDisplay:10.37,2013-03-07 07:36:00,
2013-03-07 07:41:00,41.7,40.1,29.56,ENE,58,6.9,6.9,94,0.00,CLR,,0.02,WeatherDisplay:10.37,2013-03-07 07:41:00,
2013-03-07 07:46:00,41.8,40.2,29.57,ENE,65,3.5,3.5,94,0.00,CLR,,0.02,WeatherDisplay:10.37,2013-03-07 07:46:00,
2013-03-07 07:51:00,41.8,40.2,29.57,East,84,11.5,11.5,94,0.00,CLR,,0.02,WeatherDisplay:10.37,2013-03-07 07:51:00,
2013-03-07 07:57:00,41.8,40.5,29.57,East,95,5.0,5.0,95,0.00,CLR,,0.02,WeatherDisplay:10.37,2013-03-07 07:57:00,
2013-03-07 08:02:00,41.9,40.6,29.56,ENE,61,6.9,6.9,95,0.00,CLR,,0.02,WeatherDisplay:10.37,2013-03-07 08:02:00,
2013-03-07 08:57:00,42.2,40.9,29.57,ENE,67,5.8,5.8,95,0.01,RA,,0.03,WeatherDisplay:10.37,2013-03-07 08:57:00,
2013-03-07 09:02:00,42.2,40.6,29.57,ENE,62,10.4,10.4,94,0.01,CLR,,0.03,WeatherDisplay:10.37,2013-03-07 09:02:00,
2013-03-07 09:07:00,42.3,40.7,29.57,East,90,10.4,10.4,94,0.01,CLR,,0.03,WeatherDisplay:10.37,2013-03-07 09:07:00,
2013-03-07 09:12:00,42.4,40.8,29.57,ENE,65,10.4,10.4,94,0.01,CLR,,0.03,WeatherDisplay:10.37,2013-03-07 09:12:00,
2013-03-07 09:17:00,42.4,40.8,29.57,ESE,102,10.4,10.4,94,0.01,CLR,,0.03,WeatherDisplay:10.37,2013-03-07 09:17:00,
2013-03-07 09:23:00,42.4,40.8,29.57,ENE,76,9.2,9.2,94,0.01,CLR,,0.03,WeatherDisplay:10.37,2013-03-07 09:23:00,
2013-03-07 09:28:00,42.5,41.2,29.57,ENE,68,6.9,6.9,95,0.01,CLR,,0.03,WeatherDisplay:10.37,2013-03-07 09:28:00,
2013-03-07 09:33:00,42.6,41.3,29.57,East,99,7.0,7.0,95,0.01,CLR,,0.03,WeatherDisplay:10.37,2013-03-07 09:33:00,
2013-03-07 09:39:00,42.6,41.3,29.57,East,88,5.8,5.8,95,0.01,CLR,,0.03,WeatherDisplay:10.37,2013-03-07 09:39:00,
2013-03-07 09:44:00,42.7,41.4,29.57,ENE,73,6.0,6.0,95,0.01,CLR,,0.03,WeatherDisplay:10.37,2013-03-07 09:44:00,
2013-03-07 09:49:00,42.7,41.4,29.56,ENE,75,11.5,11.5,95,0.00,CLR,,0.03,WeatherDisplay:10.37,2013-03-07 09:49:00,
2013-03-07 09:54:00,42.7,41.4,29.56,East,81,12.7,12.7,95,0.00,CLR,,0.03,WeatherDisplay:10.37,2013-03-07 09:54:00,
2013-03-07 09:59:00,42.7,41.4,29.56,East,93,11.5,11.5,95,0.00,CLR,,0.03,WeatherDisplay:10.37,2013-03-07 09:59:00,
2013-03-07 10:04:00,42.8,41.5,29.56,ENE,69,7.0,7.0,95,0.00,CLR,,0.03,WeatherDisplay:10.37,2013-03-07 10:04:00,
2013-03-07 10:09:00,42.8,41.5,29.56,SE,145,6.9,6.9,95,0.00,CLR,,0.03,WeatherDisplay:10.37,2013-03-07 10:09:00,
2013-03-07 10:14:00,42.7,41.4,29.56,East,80,11.5,11.5,95,0.00,CLR,,0.03,WeatherDisplay:10.37,2013-03-07 10:14:00,
2013-03-07 10:19:00,42.8,41.5,29.56,East,88,11.5,11.5,95,0.00,CLR,,0.03,WeatherDisplay:10.37,2013-03-07 10:19:00,
2013-03-07 10:24:00,42.8,41.5,29.56,ENE,60,11.5,11.5,95,0.00,CLR,,0.03,WeatherDisplay:10.37,2013-03-07 10:24:00,
2013-03-07 10:29:00,42.8,41.2,29.56,East,80,10.4,10.4,94,0.00,CLR,,0.03,WeatherDisplay:10.37,2013-03-07 10:29:00,
2013-03-07 10:34:00,42.8,41.2,29.56,ENE,76,11.5,11.5,94,0.00,CLR,,0.03,WeatherDisplay:10.37,2013-03-07 10:34:00,
2013-03-07 10:39:00,42.8,41.2,29.56,East,94,10.4,10.4,94,0.00,CLR,,0.03,WeatherDisplay:10.37,2013-03-07 10:39:00,
2013-03-07 10:44:00,42.9,41.3,29.55,ENE,69,12.0,12.0,94,0.00,CLR,,0.03,WeatherDisplay:10.37,2013-03-07 10:44:00,
2013-03-07 10:49:00,42.9,41.3,29.55,East,89,11.5,11.5,94,0.01,RA,,0.04,WeatherDisplay:10.37,2013-03-07 10:49:00,
2013-03-07 10:54:00,42.9,41.3,29.55,East,92,11.5,11.5,94,0.01,RA,,0.04,WeatherDisplay:10.37,2013-03-07 10:54:00,
2013-03-07 11:00:00,42.9,41.3,29.55,East,87,7.0,7.0,94,0.01,CLR,,0.04,WeatherDisplay:10.37,2013-03-07 11:00:00,
2013-03-07 11:05:00,43.0,41.4,29.55,East,93,11.5,11.5,94,0.01,CLR,,0.04,WeatherDisplay:10.37,2013-03-07 11:05:00,
2013-03-07 11:10:00,43.0,41.4,29.55,ENE,74,6.9,6.9,94,0.01,CLR,,0.04,WeatherDisplay:10.37,2013-03-07 11:10:00,
2013-03-07 11:15:00,43.0,41.4,29.55,ENE,77,5.8,5.8,94,0.01,CLR,,0.04,WeatherDisplay:10.37,2013-03-07 11:15:00,
2013-03-07 11:20:00,43.1,41.5,29.55,East,82,11.5,11.5,94,0.01,CLR,,0.04,WeatherDisplay:10.37,2013-03-07 11:20:00,
2013-03-07 11:25:00,43.2,41.9,29.55,East,88,16.1,16.1,95,0.01,CLR,,0.04,WeatherDisplay:10.37,2013-03-07 11:25:00,
2013-03-07 11:30:00,43.2,41.9,29.55,ENE,61,11.5,11.5,95,0.02,RA,,0.05,WeatherDisplay:10.37,2013-03-07 11:30:00,
2013-03-07 11:35:00,43.2,41.9,29.55,ENE,67,11.5,11.5,95,0.02,RA,,0.05,WeatherDisplay:10.37,2013-03-07 11:35:00,
2013-03-07 11:40:00,43.2,41.9,29.55,ENE,76,13.8,13.8,95,0.02,,,0.05,WeatherDisplay:10.37,2013-03-07 11:40:00,
2013-03-07 11:45:00,43.2,41.9,29.56,East,80,11.5,11.5,95,0.02,CLR,,0.05,WeatherDisplay:10.37,2013-03-07 11:45:00,
2013-03-07 11:51:00,43.2,41.9,29.56,ENE,58,13.8,13.8,95,0.01,CLR,,0.05,WeatherDisplay:10.37,2013-03-07 11:51:00,
2013-03-07 11:55:00,43.3,42.0,29.56,ENE,57,13.8,13.8,95,0.01,CLR,,0.05,WeatherDisplay:10.37,2013-03-07 11:55:00,
2013-03-07 12:01:00,43.2,41.9,29.55,East,81,18.4,18.4,95,0.01,CLR,,0.05,WeatherDisplay:10.37,2013-03-07 12:01:00,
2013-03-07 12:06:00,43.2,41.6,29.55,East,95,16.1,16.1,94,0.02,RA,,0.06,WeatherDisplay:10.37,2013-03-07 12:06:00,
2013-03-07 12:11:00,43.2,41.9,29.55,ENE,76,10.4,10.4,95,0.02,RA,,0.06,WeatherDisplay:10.37,2013-03-07 12:11:00,
2013-03-07 12:16:00,43.2,41.6,29.55,ENE,73,11.5,11.5,94,0.02,,,0.06,WeatherDisplay:10.37,2013-03-07 12:16:00,
2013-03-07 12:21:00,43.2,41.9,29.55,ENE,77,11.5,11.5,95,0.02,CLR,,0.06,WeatherDisplay:10.37,2013-03-07 12:21:00,
2013-03-07 12:26:00,43.2,41.9,29.55,ENE,73,13.8,13.8,95,0.02,CLR,,0.06,WeatherDisplay:10.37,2013-03-07 12:26:00,
2013-03-07 12:31:00,43.2,41.6,29.56,East,90,15.0,15.0,94,0.01,CLR,,0.06,WeatherDisplay:10.37,2013-03-07 12:31:00,
2013-03-07 12:36:00,43.1,41.5,29.56,East,86,12.7,12.7,94,0.01,CLR,,0.06,WeatherDisplay:10.37,2013-03-07 12:36:00,
2013-03-07 12:41:00,43.1,41.8,29.56,East,99,12.7,12.7,95,0.01,CLR,,0.06,WeatherDisplay:10.37,2013-03-07 12:41:00,
2013-03-07 12:46:00,43.1,41.8,29.55,ENE,57,9.2,9.2,95,0.02,RA,,0.06,WeatherDisplay:10.37,2013-03-07 12:46:00,
2013-03-07 12:51:00,43.0,41.4,29.55,ENE,77,11.5,11.5,94,0.02,RA,,0.06,WeatherDisplay:10.37,2013-03-07 12:51:00,
2013-03-07 12:56:00,43.0,41.4,29.55,ENE,67,6.9,6.9,94,0.02,,,0.06,WeatherDisplay:10.37,2013-03-07 12:56:00,
2013-03-07 13:02:00,43.1,41.8,29.55,ENE,69,11.5,11.5,95,0.02,RA,,0.07,WeatherDisplay:10.37,2013-03-07 13:02:00,
2013-03-07 13:07:00,43.1,41.8,29.55,NE,55,7.0,7.0,95,0.02,RA,,0.07,WeatherDisplay:10.37,2013-03-07 13:07:00,
2013-03-07 13:12:00,43.1,41.8,29.55,ENE,70,4.6,4.6,95,0.02,CLR,,0.07,WeatherDisplay:10.37,2013-03-07 13:12:00,
2013-03-07 13:17:00,43.1,41.8,29.54,ENE,64,10.4,10.4,95,0.02,RA,,0.08,WeatherDisplay:10.37,2013-03-07 13:17:00,
2013-03-07 13:22:00,43.1,41.8,29.54,NE,49,11.5,11.5,95,0.02,RA,,0.08,WeatherDisplay:10.37,2013-03-07 13:22:00,
2013-03-07 13:27:00,43.2,41.9,29.54,ESE,123,11.5,11.5,95,0.02,CLR,,0.08,WeatherDisplay:10.37,2013-03-07 13:27:00,
2013-03-07 13:32:00,43.2,41.9,29.54,ENE,74,11.5,11.5,95,0.02,CLR,,0.08,WeatherDisplay:10.37,2013-03-07 13:32:00,
2013-03-07 13:37:00,43.2,41.9,29.54,ENE,78,10.4,10.4,95,0.02,CLR,,0.08,WeatherDisplay:10.37,2013-03-07 13:37:00,
2013-03-07 13:42:00,43.2,41.9,29.54,ENE,77,6.9,6.9,95,0.02,CLR,,0.08,WeatherDisplay:10.37,2013-03-07 13:42:00,
2013-03-07 13:47:00,43.2,41.9,29.54,ESE,105,16.1,16.1,95,0.02,CLR,,0.08,WeatherDisplay:10.37,2013-03-07 13:47:00,
2013-03-07 13:52:00,43.2,41.9,29.54,East,82,11.5,11.5,95,0.02,CLR,,0.08,WeatherDisplay:10.37,2013-03-07 13:52:00,
2013-03-07 13:57:00,43.2,41.9,29.54,NE,42,12.0,12.0,95,0.02,CLR,,0.08,WeatherDisplay:10.37,2013-03-07 13:57:00,
2013-03-07 14:02:00,43.3,42.0,29.54,NE,44,13.8,13.8,95,0.01,CLR,,0.08,WeatherDisplay:10.37,2013-03-07 14:02:00,
2013-03-07 14:07:00,43.3,42.0,29.54,ENE,61,13.8,13.8,95,0.01,CLR,,0.08,WeatherDisplay:10.37,2013-03-07 14:07:00,
2013-03-07 14:12:00,43.5,42.2,29.54,East,82,11.5,11.5,95,0.01,CLR,,0.08,WeatherDisplay:10.37,2013-03-07 14:12:00,
2013-03-07 14:17:00,43.5,42.2,29.53,East,100,11.5,11.5,95,0.00,CLR,,0.08,WeatherDisplay:10.37,2013-03-07 14:17:00,
2013-03-07 14:22:00,43.5,42.2,29.53,East,86,13.0,13.0,95,0.00,CLR,,0.08,WeatherDisplay:10.37,2013-03-07 14:22:00,
2013-03-07 14:27:00,43.5,42.2,29.53,NE,53,11.5,11.5,95,0.00,CLR,,0.08,WeatherDisplay:10.37,2013-03-07 14:27:00,
2013-03-07 14:32:00,43.5,42.2,29.53,ESE,103,15.0,15.0,95,0.00,CLR,,0.08,WeatherDisplay:10.37,2013-03-07 14:32:00,
2013-03-07 14:37:00,43.4,41.8,29.53,East,79,12.0,12.0,94,0.00,CLR,,0.08,WeatherDisplay:10.37,2013-03-07 14:37:00,
2013-03-07 14:42:00,43.4,41.8,29.53,ENE,61,11.5,11.5,94,0.00,CLR,,0.08,WeatherDisplay:10.37,2013-03-07 14:42:00,
2013-03-07 14:47:00,43.3,41.7,29.53,ENE,57,6.9,6.9,94,0.00,CLR,,0.08,WeatherDisplay:10.37,2013-03-07 14:47:00,
2013-03-07 14:52:00,43.3,41.7,29.53,East,100,9.2,9.2,94,0.00,CLR,,0.08,WeatherDisplay:10.37,2013-03-07 14:52:00,
2013-03-07 14:57:00,43.3,41.7,29.53,NE,46,6.9,6.9,94,0.00,CLR,,0.08,WeatherDisplay:10.37,2013-03-07 14:57:00,
2013-03-07 15:02:00,43.3,41.7,29.53,ENE,74,12.0,12.0,94,0.00,CLR,,0.08,WeatherDisplay:10.37,2013-03-07 15:02:00,
2013-03-07 15:07:00,43.3,41.7,29.53,ESE,116,11.0,11.0,94,0.00,CLR,,0.08,WeatherDisplay:10.37,2013-03-07 15:07:00,
2013-03-07 15:12:00,43.3,41.7,29.53,ENE,76,15.0,15.0,94,0.00,CLR,,0.08,WeatherDisplay:10.37,2013-03-07 15:12:00,
2013-03-07 15:17:00,43.3,41.7,29.53,ENE,70,16.0,16.0,94,0.00,CLR,,0.08,WeatherDisplay:10.37,2013-03-07 15:17:00,
2013-03-07 15:22:00,43.3,41.7,29.53,ENE,70,16.0,16.0,94,0.00,CLR,,0.08,WeatherDisplay:10.37,2013-03-07 15:22:00,
2013-03-07 15:30:00,43.2,41.6,29.53,ENE,74,16.1,16.1,94,0.00,CLR,,0.08,WeatherDisplay:10.37,2013-03-07 15:30:00,
2013-03-07 15:35:00,43.2,41.3,29.53,ENE,75,12.7,12.7,93,0.00,CLR,,0.08,WeatherDisplay:10.37,2013-03-07 15:35:00,
2013-03-07 15:40:00,43.1,41.2,29.53,ESE,110,15.0,15.0,93,0.00,CLR,,0.08,WeatherDisplay:10.37,2013-03-07 15:40:00,
2013-03-07 15:45:00,43.1,41.2,29.52,East,97,13.8,13.8,93,0.00,CLR,,0.08,WeatherDisplay:10.37,2013-03-07 15:45:00,
2013-03-07 15:50:00,43.0,41.1,29.52,ENE,63,17.3,17.3,93,0.00,CLR,,0.08,WeatherDisplay:10.37,2013-03-07 15:50:00,
2013-03-07 15:56:00,43.0,41.1,29.52,East,100,16.1,16.1,93,0.00,CLR,,0.08,WeatherDisplay:10.37,2013-03-07 15:56:00,
2013-03-07 16:01:00,42.9,41.0,29.52,ENE,57,16.1,16.1,93,0.00,CLR,,0.08,WeatherDisplay:10.37,2013-03-07 16:01:00,
2013-03-07 16:06:00,42.9,41.0,29.52,East,96,15.0,15.0,93,0.00,CLR,,0.08,WeatherDisplay:10.37,2013-03-07 16:06:00,
2013-03-07 16:11:00,42.8,40.9,29.52,NE,51,10.4,10.4,93,0.00,CLR,,0.08,WeatherDisplay:10.37,2013-03-07 16:11:00,
2013-03-07 16:16:00,42.8,40.9,29.52,NE,53,15.0,15.0,93,0.00,CLR,,0.08,WeatherDisplay:10.37,2013-03-07 16:16:00,
2013-03-07 16:21:00,42.7,40.8,29.52,East,88,18.4,18.4,93,0.00,CLR,,0.08,WeatherDisplay:10.37,2013-03-07 16:21:00,
2013-03-07 16:26:00,42.7,40.8,29.52,ENE,67,15.0,15.0,93,0.00,CLR,,0.08,WeatherDisplay:10.37,2013-03-07 16:26:00,
2013-03-07 16:31:00,42.7,40.8,29.52,ENE,76,11.5,11.5,93,0.00,CLR,,0.08,WeatherDisplay:10.37,2013-03-07 16:31:00,
2013-03-07 16:36:00,42.6,40.7,29.52,ESE,110,19.6,19.6,93,0.00,CLR,,0.08,WeatherDisplay:10.37,2013-03-07 16:36:00,
2013-03-07 16:42:00,42.6,40.4,29.52,ENE,70,16.0,16.0,92,0.00,CLR,,0.08,WeatherDisplay:10.37,2013-03-07 16:42:00,
2013-03-07 16:47:00,42.6,40.4,29.52,ENE,69,13.0,13.0,92,0.00,CLR,,0.08,WeatherDisplay:10.37,2013-03-07 16:47:00,
2013-03-07 16:52:00,42.5,40.6,29.52,NE,56,10.4,10.4,93,0.00,CLR,,0.08,WeatherDisplay:10.37,2013-03-07 16:52:00,
2013-03-07 16:57:00,42.5,40.6,29.52,East,90,12.7,12.7,93,0.00,CLR,,0.08,WeatherDisplay:10.37,2013-03-07 16:57:00,
2013-03-07 17:02:00,42.4,40.5,29.52,ENE,66,19.6,19.6,93,0.00,CLR,,0.08,WeatherDisplay:10.37,2013-03-07 17:02:00,
2013-03-07 17:08:00,42.4,40.5,29.52,ENE,76,16.1,16.1,93,0.00,CLR,,0.08,WeatherDisplay:10.37,2013-03-07 17:08:00,
2013-03-07 17:13:00,42.3,40.4,29.52,ENE,71,13.8,13.8,93,0.00,CLR,,0.08,WeatherDisplay:10.37,2013-03-07 17:13:00,
2013-03-07 17:18:00,42.3,40.4,29.52,ENE,65,11.5,11.5,93,0.00,CLR,,0.08,WeatherDisplay:10.37,2013-03-07 17:18:00,
2013-03-07 17:23:00,42.3,40.1,29.52,NE,42,12.7,12.7,92,0.00,CLR,,0.08,WeatherDisplay:10.37,2013-03-07 17:23:00,
2013-03-07 17:28:00,42.3,40.1,29.52,East,82,10.4,10.4,92,0.00,CLR,,0.08,WeatherDisplay:10.37,2013-03-07 17:28:00,
2013-03-07 17:34:00,42.3,40.4,29.53,East,96,11.5,11.5,93,0.00,CLR,,0.08,WeatherDisplay:10.37,2013-03-07 17:34:00,
2013-03-07 17:39:00,42.2,40.0,29.53,ENE,66,11.5,11.5,92,0.00,CLR,,0.08,WeatherDisplay:10.37,2013-03-07 17:39:00,
2013-03-07 17:44:00,42.2,40.0,29.53,NE,51,19.6,19.6,92,0.00,CLR,,0.08,WeatherDisplay:10.37,2013-03-07 17:44:00,
2013-03-07 17:49:00,42.2,40.0,29.53,ENE,69,12.7,12.7,92,0.00,CLR,,0.08,WeatherDisplay:10.37,2013-03-07 17:49:00,
2013-03-07 17:54:00,42.2,40.0,29.53,East,97,18.4,18.4,92,0.00,CLR,,0.08,WeatherDisplay:10.37,2013-03-07 17:54:00,
2013-03-07 17:59:00,42.2,40.0,29.53,East,82,12.0,12.0,92,0.00,CLR,,0.08,WeatherDisplay:10.37,2013-03-07 17:59:00,
2013-03-07 18:05:00,42.1,39.9,29.53,ENE,65,15.0,15.0,92,0.00,CLR,,0.08,WeatherDisplay:10.37,2013-03-07 18:05:00,
2013-03-07 18:10:00,42.1,39.9,29.53,ENE,63,12.7,12.7,92,0.00,CLR,,0.08,WeatherDisplay:10.37,2013-03-07 18:10:00,
2013-03-07 18:15:00,42.1,39.9,29.54,East,91,17.3,17.3,92,0.00,CLR,,0.08,WeatherDisplay:10.37,2013-03-07 18:15:00,
2013-03-07 18:20:00,42.1,39.9,29.54,East,80,5.8,5.8,92,0.00,CLR,,0.08,WeatherDisplay:10.37,2013-03-07 18:20:00,
2013-03-07 18:25:00,42.1,39.9,29.54,ENE,70,16.1,16.1,92,0.00,CLR,,0.08,WeatherDisplay:10.37,2013-03-07 18:25:00,
2013-03-07 18:30:00,42.0,39.8,29.53,ENE,61,16.1,16.1,92,0.00,CLR,,0.08,WeatherDisplay:10.37,2013-03-07 18:30:00,
2013-03-07 18:35:00,42.0,39.8,29.53,East,86,11.5,11.5,92,0.00,CLR,,0.08,WeatherDisplay:10.37,2013-03-07 18:35:00,
2013-03-07 18:40:00,42.0,39.8,29.53,NE,47,23.0,23.0,92,0.00,CLR,,0.08,WeatherDisplay:10.37,2013-03-07 18:40:00,
2013-03-07 18:45:00,42.0,39.8,29.53,ENE,71,18.4,18.4,92,0.00,CLR,,0.08,WeatherDisplay:10.37,2013-03-07 18:45:00,
2013-03-07 18:50:00,42.0,39.8,29.53,ESE,109,17.3,17.3,92,0.00,CLR,,0.08,WeatherDisplay:10.37,2013-03-07 18:50:00,
2013-03-07 18:55:00,42.0,39.8,29.53,NE,49,18.4,18.4,92,0.00,CLR,,0.08,WeatherDisplay:10.37,2013-03-07 18:55:00,
2013-03-07 19:00:00,42.0,39.8,29.53,East,84,18.4,18.4,92,0.00,CLR,,0.08,WeatherDisplay:10.37,2013-03-07 19:00:00,
2013-03-07 19:05:00,42.0,39.8,29.53,ENE,78,13.8,13.8,92,0.00,CLR,,0.08,WeatherDisplay:10.37,2013-03-07 19:05:00,
2013-03-07 19:10:00,42.0,39.8,29.53,East,80,16.1,16.1,92,0.00,CLR,,0.08,WeatherDisplay:10.37,2013-03-07 19:10:00,
2013-03-07 19:15:00,41.9,39.7,29.54,NE,38,15.0,15.0,92,0.00,CLR,,0.08,WeatherDisplay:10.37,2013-03-07 19:15:00,
2013-03-07 19:20:00,41.9,39.7,29.54,ENE,78,11.5,11.5,92,0.00,CLR,,0.08,WeatherDisplay:10.37,2013-03-07 19:20:00,
2013-03-07 19:25:00,41.9,39.7,29.54,NE,55,13.8,13.8,92,0.00,CLR,,0.08,WeatherDisplay:10.37,2013-03-07 19:25:00,
2013-03-07 19:30:00,41.9,39.7,29.54,ESE,115,16.1,16.1,92,0.00,CLR,,0.08,WeatherDisplay:10.37,2013-03-07 19:30:00,
2013-03-07 19:35:00,41.9,39.7,29.54,ENE,70,11.5,11.5,92,0.00,CLR,,0.08,WeatherDisplay:10.37,2013-03-07 19:35:00,
2013-03-07 19:40:00,41.9,39.7,29.54,East,82,12.7,12.7,92,0.00,CLR,,0.08,WeatherDisplay:10.37,2013-03-07 19:40:00,
2013-03-07 19:46:00,41.9,39.7,29.55,ESE,103,18.4,18.4,92,0.00,CLR,,0.08,WeatherDisplay:10.37,2013-03-07 19:46:00,
2013-03-07 19:51:00,41.9,39.7,29.55,ENE,63,15.0,15.0,92,0.00,CLR,,0.08,WeatherDisplay:10.37,2013-03-07 19:51:00,
2013-03-07 19:56:00,41.9,39.5,29.55,ENE,78,13.8,13.8,91,0.00,CLR,,0.08,WeatherDisplay:10.37,2013-03-07 19:56:00,
2013-03-07 20:01:00,41.9,39.5,29.55,ENE,69,11.5,11.5,91,0.00,CLR,,0.08,WeatherDisplay:10.37,2013-03-07 20:01:00,
2013-03-07 20:06:00,41.9,39.5,29.55,ENE,63,14.0,14.0,91,0.00,CLR,,0.08,WeatherDisplay:10.37,2013-03-07 20:06:00,
2013-03-07 20:11:00,41.9,39.5,29.55,East,90,17.3,17.3,91,0.00,CLR,,0.08,WeatherDisplay:10.37,2013-03-07 20:11:00,
2013-03-07 20:16:00,41.9,39.5,29.55,East,82,16.1,16.1,91,0.00,CLR,,0.08,WeatherDisplay:10.37,2013-03-07 20:16:00,
2013-03-07 20:21:00,41.9,39.5,29.55,ENE,69,10.4,10.4,91,0.00,CLR,,0.08,WeatherDisplay:10.37,2013-03-07 20:21:00,
2013-03-07 20:26:00,41.9,39.5,29.55,East,98,9.0,9.0,91,0.00,CLR,,0.08,WeatherDisplay:10.37,2013-03-07 20:26:00,
2013-03-07 20:31:00,41.9,39.5,29.55,ENE,61,10.4,10.4,91,0.00,CLR,,0.08,WeatherDisplay:10.37,2013-03-07 20:31:00,
2013-03-07 20:36:00,41.9,39.5,29.55,ENE,78,15.0,15.0,91,0.00,CLR,,0.08,WeatherDisplay:10.37,2013-03-07 20:36:00,
2013-03-07 20:42:00,41.9,39.5,29.55,East,80,9.2,9.2,91,0.00,CLR,,0.08,WeatherDisplay:10.37,2013-03-07 20:42:00,
2013-03-07 20:47:00,41.9,39.5,29.55,ENE,71,16.1,16.1,91,0.00,CLR,,0.08,WeatherDisplay:10.37,2013-03-07 20:47:00,
2013-03-07 20:52:00,41.9,39.5,29.55,NE,47,11.5,11.5,91,0.00,CLR,,0.08,WeatherDisplay:10.37,2013-03-07 20:52:00,
2013-03-07 20:57:00,41.9,39.5,29.55,East,82,15.0,15.0,91,0.00,CLR,,0.08,WeatherDisplay:10.37,2013-03-07 20:57:00,
2013-03-07 21:02:00,41.9,39.5,29.55,East,79,12.7,12.7,91,0.00,CLR,,0.08,WeatherDisplay:10.37,2013-03-07 21:02:00,
2013-03-07 21:07:00,41.9,39.5,29.55,ENE,74,12.7,12.7,91,0.00,CLR,,0.08,WeatherDisplay:10.37,2013-03-07 21:07:00,
2013-03-07 21:12:00,41.9,39.5,29.55,ENE,73,11.5,11.5,91,0.00,CLR,,0.08,WeatherDisplay:10.37,2013-03-07 21:12:00,
2013-03-07 21:17:00,41.9,39.5,29.55,ENE,77,12.7,12.7,91,0.00,CLR,,0.08,WeatherDisplay:10.37,2013-03-07 21:17:00,
2013-03-07 21:22:00,41.9,39.5,29.55,ENE,61,13.8,13.8,91,0.00,CLR,,0.08,WeatherDisplay:10.37,2013-03-07 21:22:00,
2013-03-07 21:27:00,41.9,39.5,29.55,East,86,5.8,5.8,91,0.00,CLR,,0.08,WeatherDisplay:10.37,2013-03-07 21:27:00,
2013-03-07 21:32:00,41.9,39.5,29.55,ENE,59,12.7,12.7,91,0.00,CLR,,0.08,WeatherDisplay:10.37,2013-03-07 21:32:00,
2013-03-07 21:37:00,41.9,39.5,29.55,East,94,18.4,18.4,91,0.00,CLR,,0.08,WeatherDisplay:10.37,2013-03-07 21:37:00,
2013-03-07 21:42:00,41.9,39.5,29.55,ENE,59,17.0,17.0,91,0.00,CLR,,0.08,WeatherDisplay:10.37,2013-03-07 21:42:00,
2013-03-07 21:47:00,41.9,39.5,29.55,ENE,71,12.7,12.7,91,0.00,CLR,,0.08,WeatherDisplay:10.37,2013-03-07 21:47:00,
2013-03-07 21:52:00,41.9,39.5,29.55,East,80,17.3,17.3,91,0.00,CLR,,0.08,WeatherDisplay:10.37,2013-03-07 21:52:00,
2013-03-07 21:57:00,41.9,39.5,29.55,ENE,76,12.7,12.7,91,0.00,CLR,,0.08,WeatherDisplay:10.37,2013-03-07 21:57:00,
2013-03-07 22:02:00,41.9,39.2,29.54,ENE,78,11.5,11.5,90,0.00,CLR,,0.08,WeatherDisplay:10.37,2013-03-07 22:02:00,
2013-03-07 22:07:00,41.8,39.1,29.54,East,82,13.8,13.8,90,0.00,CLR,,0.08,WeatherDisplay:10.37,2013-03-07 22:07:00,
2013-03-07 22:12:00,41.8,39.1,29.54,East,86,13.8,13.8,90,0.00,CLR,,0.08,WeatherDisplay:10.37,2013-03-07 22:12:00,
2013-03-07 22:17:00,41.8,39.1,29.55,East,83,11.5,11.5,90,0.00,CLR,,0.08,WeatherDisplay:10.37,2013-03-07 22:17:00,
2013-03-07 22:22:00,41.8,39.1,29.55,ENE,65,13.8,13.8,90,0.00,CLR,,0.08,WeatherDisplay:10.37,2013-03-07 22:22:00,
2013-03-07 22:27:00,41.8,39.1,29.55,ENE,72,13.0,13.0,90,0.00,CLR,,0.08,WeatherDisplay:10.37,2013-03-07 22:27:00,
2013-03-07 22:32:00,41.7,39.0,29.55,East,80,12.7,12.7,90,0.00,CLR,,0.08,WeatherDisplay:10.37,2013-03-07 22:32:00,
2013-03-07 22:37:00,41.7,39.0,29.55,East,84,16.1,16.1,90,0.00,CLR,,0.08,WeatherDisplay:10.37,2013-03-07 22:37:00,
2013-03-07 22:42:00,41.7,39.0,29.55,ENE,76,15.0,15.0,90,0.00,CLR,,0.08,WeatherDisplay:10.37,2013-03-07 22:42:00,
2013-03-07 22:47:00,41.6,38.9,29.55,East,82,15.0,15.0,90,0.00,CLR,,0.08,WeatherDisplay:10.37,2013-03-07 22:47:00,
2013-03-07 22:52:00,41.6,38.9,29.55,ENE,61,14.0,14.0,90,0.00,CLR,,0.08,WeatherDisplay:10.37,2013-03-07 22:52:00,
2013-03-07 22:57:00,41.6,38.9,29.55,ENE,66,16.1,16.1,90,0.00,CLR,,0.08,WeatherDisplay:10.37,2013-03-07 22:57:00,
2013-03-07 23:02:00,41.6,38.9,29.54,ENE,68,12.7,12.7,90,0.00,CLR,,0.08,WeatherDisplay:10.37,2013-03-07 23:02:00,
2013-03-07 23:07:00,41.6,38.9,29.54,East,98,12.7,12.7,90,0.00,CLR,,0.08,WeatherDisplay:10.37,2013-03-07 23:07:00,
2013-03-07 23:12:00,41.5,38.5,29.54,East,79,15.0,15.0,89,0.00,CLR,,0.08,WeatherDisplay:10.37,2013-03-07 23:12:00,
2013-03-07 23:17:00,41.5,38.5,29.54,ESE,109,21.9,21.9,89,0.00,CLR,,0.08,WeatherDisplay:10.37,2013-03-07 23:17:00,
2013-03-07 23:22:00,41.5,38.5,29.54,ENE,65,15.0,15.0,89,0.00,CLR,,0.08,WeatherDisplay:10.37,2013-03-07 23:22:00,
2013-03-07 23:27:00,41.5,38.5,29.54,ESE,109,15.0,15.0,89,0.00,CLR,,0.08,WeatherDisplay:10.37,2013-03-07 23:27:00,
2013-03-07 23:32:00,41.5,38.5,29.54,ESE,103,10.4,10.4,89,0.00,CLR,,0.08,WeatherDisplay:10.37,2013-03-07 23:32:00,
2013-03-07 23:37:00,41.5,38.5,29.54,ENE,68,12.7,12.7,89,0.00,CLR,,0.08,WeatherDisplay:10.37,2013-03-07 23:37:00,
2013-03-07 23:42:00,41.5,38.5,29.54,East,101,13.8,13.8,89,0.00,CLR,,0.08,WeatherDisplay:10.37,2013-03-07 23:42:00,
2013-03-07 23:47:00,41.5,38.5,29.54,ENE,69,11.5,11.5,89,0.00,CLR,,0.08,WeatherDisplay:10.37,2013-03-07 23:47:00,
2013-03-07 23:52:00,41.4,38.4,29.54,East,96,15.0,15.0,89,0.00,CLR,,0.08,WeatherDisplay:10.37,2013-03-07 23:52:00,
2013-03-07 23:57:00,41.5,38.5,29.54,ENE,74,11.5,11.5,89,0.00,CLR,,0.08,WeatherDisplay:10.37,2013-03-07 23:57:00,